Penguin Arrow — C6PA6 — position and weather

sailwx.info

Track history (hours):
 
Tides and Currents Weather Stations Pressure Air Temp Water Temp Dewpoint Dewpoint Depression Visibility Wind Speed Wind Dir Waves Ship Positions

Penguin Arrow

Last reported at 2018-Jun-24 04:51 UTC. Time now 2018-Jun-25 06:06 UTC.
Position S 34°07' E 151°20'.

Length 200 m; draft 8.9 m.

Type: Cargo ship. MMSI: 309927000.

Date/timePositionNaut miles runAvg speedWind from/ knotsBaromVisibWave heightAir tempDewpointWater temp
2018-Jun-24 04:51S 34°07' E 151°20'411.8
2018-Jun-24 04:31S 34°04' E 151°24'611.8
2018-Jun-24 04:00S 33°60' E 151°29'611.4
2018-Jun-24 03:30S 33°55' E 151°32'611.7
2018-Jun-24 03:00S 33°50' E 151°35'612.4
2018-Jun-24 02:30S 33°44' E 151°37'612.6
2018-Jun-24 02:00S 33°38' E 151°39'2712.9
2018-Jun-23 23:57S 33°12' E 151°47'613.0
2018-Jun-23 23:28S 33°06' E 151°48'612.8
2018-Jun-23 23:01S 33°00' E 151°50'611.0
2018-Jun-23 22:30S 32°55' E 151°49'2 4.3
2018-Jun-23 22:01S 32°55' E 151°46'0 0.1
2018-Jun-23 21:28S 32°55' E 151°46'0 0.0
2018-Jun-23 20:58S 32°55' E 151°46'0 0.0
2018-Jun-23 20:28S 32°55' E 151°46'0 0.0
2018-Jun-23 19:58S 32°55' E 151°46'0 0.0
2018-Jun-23 19:22S 32°55' E 151°46'0 0.0
2018-Jun-23 18:58S 32°55' E 151°46'0 0.0
2018-Jun-23 18:25S 32°55' E 151°46'0 0.0
2018-Jun-23 17:58S 32°55' E 151°46'0 0.0
2018-Jun-23 17:25S 32°55' E 151°46'0 0.0
2018-Jun-23 16:58S 32°55' E 151°46'0 0.0
2018-Jun-23 16:28S 32°55' E 151°46'0 0.0
2018-Jun-23 15:58S 32°55' E 151°46'0 0.0
2018-Jun-23 15:28S 32°55' E 151°46'0 0.0
2018-Jun-23 14:58S 32°55' E 151°46'0 0.0
2018-Jun-23 14:28S 32°55' E 151°46'0 0.0
2018-Jun-23 13:58S 32°55' E 151°46'0 0.0
2018-Jun-23 13:28S 32°55' E 151°46'0 0.0
2018-Jun-23 12:58S 32°55' E 151°46'0 0.0
2018-Jun-23 12:28S 32°55' E 151°46'0 0.0
2018-Jun-23 11:58S 32°55' E 151°46'0 0.0
2018-Jun-23 11:28S 32°55' E 151°46'0 0.0
2018-Jun-23 10:58S 32°55' E 151°46'0 0.0
2018-Jun-23 10:28S 32°55' E 151°46'0 0.0
2018-Jun-23 09:58S 32°55' E 151°46'0 0.0
2018-Jun-23 09:28S 32°55' E 151°46'0 0.0
2018-Jun-23 08:58S 32°55' E 151°46'0 0.0
2018-Jun-23 08:28S 32°55' E 151°46'0 0.0
2018-Jun-23 07:58S 32°55' E 151°46'0 0.0
2018-Jun-23 07:28S 32°55' E 151°46'0 0.0
2018-Jun-23 06:58S 32°55' E 151°46'0 0.0
2018-Jun-23 06:28S 32°55' E 151°46'0 0.0
2018-Jun-23 05:58S 32°55' E 151°46'0 0.0
2018-Jun-23 05:22S 32°55' E 151°46'0 0.0
2018-Jun-23 04:58S 32°55' E 151°46'0 0.0
2018-Jun-23 04:28S 32°55' E 151°46'0 0.0
2018-Jun-23 03:58S 32°55' E 151°46'0 0.0
2018-Jun-23 03:28S 32°55' E 151°46'0 0.0
2018-Jun-23 02:58S 32°55' E 151°46'0 0.0
2018-Jun-23 02:28S 32°55' E 151°46'0 0.0
2018-Jun-23 02:00S 32°55' E 151°46'0 0.3
2018-Jun-23 01:30S 32°55' E 151°46'1 1.3
2018-Jun-23 01:00S 32°55' E 151°47'3 6.8
2018-Jun-23 00:30S 32°56' E 151°51'3 5.6
2018-Jun-23 00:00S 32°58' E 151°52'510.8
2018-Jun-22 23:31S 33°03' E 151°55'2 4.2
2018-Jun-22 23:00S 33°05' E 151°57'0 0.9
2018-Jun-22 22:30S 33°04' E 151°57'1 1.5
2018-Jun-22 22:00S 33°05' E 151°57'2 3.7
2018-Jun-22 21:30S 33°07' E 151°57'0 0.7
2018-Jun-22 21:00S 33°07' E 151°57'0 1.0
2018-Jun-22 20:30S 33°06' E 151°57'1 1.3
2018-Jun-22 20:01S 33°06' E 151°57'1 1.5
2018-Jun-22 19:31S 33°05' E 151°57'1 1.2
2018-Jun-22 19:01S 33°04' E 151°57'0 0.9
2018-Jun-22 18:30S 33°05' E 151°58'1 1.3
2018-Jun-22 18:00S 33°05' E 151°58'0 0.8
2018-Jun-22 17:30S 33°05' E 151°58'0 0.8
2018-Jun-22 17:00S 33°05' E 151°59'0 0.4
2018-Jun-22 16:30S 33°05' E 151°59'0 0.6
2018-Jun-22 16:01S 33°05' E 151°59'1 1.1
2018-Jun-22 15:30S 33°04' E 151°59'0 0.7
2018-Jun-22 15:01S 33°04' E 151°59'1 2.6
2018-Jun-22 14:30S 33°03' E 151°58'4 8.9
2018-Jun-22 14:00S 32°60' E 151°54'2 4.5
2018-Jun-22 13:31S 33°02' E 151°56'4 7.7
2018-Jun-22 13:00S 33°04' E 151°60'1 1.1
2018-Jun-22 12:31S 33°03' E 151°60'1 1.2
2018-Jun-22 12:00S 33°03' E 151°59'2 3.3
2018-Jun-22 11:30S 33°02' E 151°58'4 8.2
2018-Jun-22 11:00S 33°01' E 151°53'5 9.3
2018-Jun-22 10:30S 33°06' E 151°54'0 0.9
2018-Jun-22 10:00S 33°05' E 151°54'0 1.0
2018-Jun-22 09:30S 33°05' E 151°55'1 1.2
2018-Jun-22 09:00S 33°05' E 151°56'1 1.1
2018-Jun-22 08:30S 33°05' E 151°56'0 0.9
2018-Jun-22 08:00S 33°04' E 151°56'1 1.2
2018-Jun-22 07:30S 33°04' E 151°57'0 0.7
2018-Jun-22 07:00S 33°04' E 151°57'1 1.4
2018-Jun-22 06:30S 33°04' E 151°56'1 1.6
2018-Jun-22 06:00S 33°03' E 151°57'4271.6
2018-Jun-22 06:00S 33°00' E 151°54'4 9.2 290 / 51026.310.8 19.013.818.5
2018-Jun-22 05:30S 33°03' E 151°58'1 1.7
2018-Jun-22 05:00S 33°02' E 151°58'1 1.2
2018-Jun-22 04:30S 33°02' E 151°58'1 1.6
2018-Jun-22 04:00S 33°02' E 151°58'1 1.9
2018-Jun-22 03:30S 33°02' E 151°59'0 0.8
2018-Jun-22 03:00S 33°02' E 151°60'1 2.3
2018-Jun-22 02:30S 33°00' E 151°60'2 4.7
2018-Jun-22 02:00S 33°01' E 151°57'4 7.2
2018-Jun-22 01:30S 33°02' E 151°53'4 8.3
2018-Jun-22 01:00S 33°06' E 151°53'1 1.7
2018-Jun-22 00:30S 33°06' E 151°54'1 1.8
2018-Jun-22 00:00S 33°05' E 151°54'1 2.0
2018-Jun-21 23:30S 33°05' E 151°55'1 1.9
2018-Jun-21 23:00S 33°04' E 151°56'1 1.9
2018-Jun-21 22:30S 33°03' E 151°57'1 1.7
2018-Jun-21 22:00S 33°03' E 151°58'1 1.9
2018-Jun-21 21:30S 33°02' E 151°59'4 8.5
2018-Jun-21 21:00S 33°01' E 151°54'4 8.5
2018-Jun-21 20:30S 33°05' E 151°56'1 1.7
2018-Jun-21 20:00S 33°04' E 151°57'1 1.9
2018-Jun-21 19:30S 33°05' E 151°58'0 0.2
2018-Jun-21 19:00S 33°05' E 151°58'1 1.9
2018-Jun-21 18:30S 33°04' E 151°58'1 2.4
2018-Jun-21 18:00S 33°03' E 151°58'3 6.2
2018-Jun-21 17:30S 33°00' E 151°56'510.7
2018-Jun-21 17:00S 32°56' E 151°51'1 2.7
2018-Jun-21 16:30S 32°55' E 151°51'4 8.5
2018-Jun-21 16:00S 32°59' E 151°52'4 7.0
2018-Jun-21 15:30S 33°01' E 151°56'3 5.4
2018-Jun-21 15:00S 33°03' E 151°58'1 2.2
2018-Jun-21 14:30S 33°02' E 151°59'1 1.2
2018-Jun-21 14:00S 33°02' E 151°59'0 0.9
2018-Jun-21 13:30S 33°01' E 151°60'1 1.2
2018-Jun-21 13:00S 33°01' E 152°00'1 1.2
2018-Jun-21 12:30S 33°00' E 152°00'1 1.1
2018-Jun-21 12:00S 32°60' E 152°01'1 1.1
2018-Jun-21 11:30S 32°60' E 152°01'0 0.7
2018-Jun-21 11:00S 32°59' E 152°02'1 1.0
2018-Jun-21 10:30S 32°59' E 152°02'0 0.6
2018-Jun-21 10:00S 32°59' E 152°02'1 1.6
2018-Jun-21 09:30S 32°59' E 152°03'0 0.6
2018-Jun-21 09:00S 32°59' E 152°04'1 2.3
2018-Jun-21 08:30S 32°58' E 152°03'0 0.2
2018-Jun-21 08:00S 32°58' E 152°03'0 0.8
2018-Jun-21 07:30S 32°58' E 152°04'0 0.8
2018-Jun-21 07:00S 32°59' E 152°04'2 4.0
2018-Jun-21 06:30S 33°01' E 152°04'1 1.4
2018-Jun-21 06:00S 33°00' E 152°04'1 1.7
2018-Jun-21 05:30S 33°00' E 152°03'2 3.1
2018-Jun-21 05:00S 33°00' E 152°02'0 0.8
2018-Jun-21 04:30S 33°00' E 152°01'1 1.5
2018-Jun-21 04:00S 32°60' E 152°02'1 1.6
2018-Jun-21 03:30S 32°60' E 152°03'0 0.6
2018-Jun-21 03:00S 32°60' E 152°03'0 0.5
2018-Jun-21 02:30S 32°60' E 152°03'0 0.5
2018-Jun-21 02:00S 32°60' E 152°04'1 2.6
2018-Jun-21 01:30S 32°59' E 152°02'2 4.7
2018-Jun-21 01:00S 32°59' E 151°59'0 0.6
2018-Jun-21 00:30S 32°59' E 151°60'0 0.7
2018-Jun-21 00:00S 32°59' E 151°60'1 1.1
2018-Jun-20 23:30S 32°59' E 152°01'0 0.7
2018-Jun-20 23:00S 32°60' E 152°01'0 0.9
2018-Jun-20 22:30S 32°60' E 152°01'0 0.9
2018-Jun-20 22:00S 33°00' E 152°02'0 0.9
2018-Jun-20 21:30S 33°00' E 152°02'0 0.8
2018-Jun-20 21:00S 33°00' E 152°03'2 3.2
2018-Jun-20 20:30S 32°59' E 152°02'1 1.3
2018-Jun-20 20:00S 32°58' E 152°02'1 1.2
2018-Jun-20 19:30S 32°59' E 152°02'1 1.0
2018-Jun-20 19:00S 32°59' E 152°03'1 1.1
2018-Jun-20 18:30S 32°59' E 152°03'0 0.7
2018-Jun-20 18:00S 32°59' E 152°03'0 0.8
2018-Jun-20 17:30S 32°59' E 152°04'1 1.3
2018-Jun-20 17:00S 32°59' E 152°05'1 2.0
2018-Jun-20 16:30S 32°60' E 152°06'1 1.4
2018-Jun-20 16:00S 32°59' E 152°07'1 1.9
2018-Jun-20 15:30S 32°59' E 152°08'1 2.3
2018-Jun-20 15:00S 32°59' E 152°06'0 0.8
2018-Jun-20 14:30S 32°58' E 152°06'2 3.3
2018-Jun-20 14:00S 32°58' E 152°04'1 1.0
2018-Jun-20 13:30S 32°58' E 152°03'0 1.0
2018-Jun-20 13:00S 32°58' E 152°03'1 1.0
2018-Jun-20 12:30S 32°59' E 152°04'0 0.8
2018-Jun-20 12:00S 32°59' E 152°03'1 2.2
2018-Jun-20 11:30S 32°58' E 152°02'0 0.8
2018-Jun-20 11:00S 32°58' E 152°02'1 1.2
2018-Jun-20 10:30S 32°59' E 152°02'1 1.1
2018-Jun-20 10:00S 32°59' E 152°02'1 1.3
2018-Jun-20 09:30S 32°59' E 152°02'2 3.3
2018-Jun-20 09:00S 32°58' E 152°02'2 3.4
2018-Jun-20 08:30S 32°56' E 152°03'1 1.3
2018-Jun-20 08:00S 32°57' E 152°02'1 1.2
2018-Jun-20 07:30S 32°57' E 152°02'1 1.4
2018-Jun-20 07:00S 32°57' E 152°01'0 0.5
2018-Jun-20 06:30S 32°58' E 152°01'1 2.6
2018-Jun-20 06:00S 32°59' E 152°01'1 2.2
2018-Jun-20 05:30S 32°58' E 152°01'1 1.4
2018-Jun-20 05:00S 32°57' E 152°01'1 1.4
2018-Jun-20 04:30S 32°58' E 152°02'1 1.1
2018-Jun-20 04:00S 32°57' E 152°02'0 0.7
2018-Jun-20 03:30S 32°57' E 152°02'0 1.0
2018-Jun-20 03:00S 32°57' E 152°02'2 4.2
2018-Jun-20 02:30S 32°59' E 152°02'2 4.6
2018-Jun-20 02:00S 33°02' E 152°01'1 1.0
2018-Jun-20 01:30S 33°02' E 152°00'1 1.6
2018-Jun-20 01:00S 33°01' E 151°60'1 1.5
2018-Jun-20 00:30S 33°01' E 151°59'1 1.4
2018-Jun-20 00:00S 33°00' E 151°59'1 1.0
2018-Jun-19 23:30S 32°60' E 151°59'1 1.5
2018-Jun-19 23:00S 32°60' E 151°59'0 0.7
2018-Jun-19 22:30S 33°00' E 151°60'0 0.7
2018-Jun-19 22:00S 32°60' E 151°60'0 0.6
2018-Jun-19 21:30S 32°60' E 152°00'0 0.8
2018-Jun-19 21:00S 32°59' E 152°00'0 0.7
2018-Jun-19 20:30S 32°59' E 152°01'1 1.7
2018-Jun-19 20:00S 32°58' E 152°01'0 0.3
2018-Jun-19 19:30S 32°58' E 152°00'0 0.7
2018-Jun-19 19:00S 32°58' E 152°01'1 3.0
2018-Jun-19 18:30S 32°58' E 152°03'1 1.4
2018-Jun-19 18:00S 32°57' E 152°03'4273.0
2018-Jun-19 18:00S 32°54' E 152°00'4 8.4 130 / 251024.2 5.4 13.013.013.5
2018-Jun-19 17:30S 32°57' E 152°03'1 1.2
2018-Jun-19 17:00S 32°57' E 152°04'0 0.3
2018-Jun-19 16:30S 32°57' E 152°04'0 0.3
2018-Jun-19 16:00S 32°57' E 152°04'0 0.9
2018-Jun-19 15:30S 32°57' E 152°03'0 0.8
2018-Jun-19 15:00S 32°57' E 152°03'0 0.7
2018-Jun-19 14:30S 32°57' E 152°03'0 0.9
2018-Jun-19 14:00S 32°57' E 152°02'0 1.0
2018-Jun-19 13:30S 32°57' E 152°02'2 4.1
2018-Jun-19 13:00S 32°59' E 152°00'1 1.2
2018-Jun-19 12:30S 32°60' E 151°60'0 0.7
2018-Jun-19 12:00S 32°60' E 151°59'1 1.2
2018-Jun-19 11:31S 32°60' E 151°59'1 1.2
2018-Jun-19 11:01S 32°60' E 151°58'0 0.5
2018-Jun-19 10:30S 33°00' E 151°58'0 0.4
2018-Jun-19 10:01S 32°60' E 151°58'0 0.3
2018-Jun-19 09:31S 32°60' E 151°58'0 0.5
2018-Jun-19 09:00S 32°60' E 151°59'0 0.8
2018-Jun-19 08:31S 32°60' E 151°59'1 1.2
2018-Jun-19 08:01S 32°59' E 151°60'0 0.8
2018-Jun-19 07:30S 32°60' E 151°60'1 1.0
2018-Jun-19 07:01S 32°60' E 151°59'1 1.8
2018-Jun-19 06:30S 32°59' E 152°00'3 5.4
2018-Jun-19 06:01S 32°57' E 152°02'2 4.4
2018-Jun-19 05:30S 32°56' E 152°05'2 4.8
2018-Jun-19 05:00S 32°57' E 152°07'0 0.7
2018-Jun-19 04:31S 32°58' E 152°07'1 1.5
2018-Jun-19 04:01S 32°58' E 152°06'1 1.3
2018-Jun-19 03:30S 32°58' E 152°05'1 1.6
2018-Jun-19 03:00S 32°58' E 152°04'1 1.2
2018-Jun-19 02:30S 32°58' E 152°05'0 0.4
2018-Jun-19 02:01S 32°58' E 152°05'0 0.7
2018-Jun-19 01:30S 32°58' E 152°05'0 0.6
2018-Jun-19 01:00S 32°58' E 152°04'0 0.5
2018-Jun-19 00:30S 32°58' E 152°05'0 0.5
2018-Jun-19 00:00S 32°57' E 152°05'2 4.0
2018-Jun-18 23:31S 32°59' E 152°03'3 6.6
2018-Jun-18 23:01S 33°02' E 152°01'3 6.4
2018-Jun-18 22:31S 33°05' E 152°00'2 4.8
2018-Jun-18 22:01S 33°07' E 151°60'1 1.8
2018-Jun-18 21:30S 33°07' E 152°00'1 2.0
2018-Jun-18 21:00S 33°06' E 152°01'1 1.9
2018-Jun-18 20:31S 33°06' E 152°03'1 1.8
2018-Jun-18 20:00S 33°06' E 152°03'0 0.9
2018-Jun-18 19:30S 33°05' E 152°04'1 1.1
2018-Jun-18 19:01S 33°05' E 152°03'1 1.1
2018-Jun-18 18:30S 33°05' E 152°03'1 1.2
2018-Jun-18 18:00S 33°04' E 152°02'1 1.1
2018-Jun-18 17:30S 33°04' E 152°02'0 0.8
2018-Jun-18 17:00S 33°03' E 152°02'0 0.9
2018-Jun-18 16:30S 33°03' E 152°01'0 0.6
2018-Jun-18 16:00S 33°03' E 152°01'0 0.6
2018-Jun-18 15:31S 33°03' E 152°01'0 1.0
2018-Jun-18 15:01S 33°03' E 152°00'0 0.8
2018-Jun-18 14:31S 33°02' E 151°60'0 0.5
2018-Jun-18 14:00S 33°02' E 151°60'0 0.6
2018-Jun-18 13:30S 33°02' E 151°59'1 1.1
2018-Jun-18 13:01S 33°02' E 151°59'0 1.0
2018-Jun-18 12:31S 33°01' E 151°59'0 0.7
2018-Jun-18 12:01S 33°01' E 151°59'0 0.7
2018-Jun-18 11:31S 33°01' E 151°58'0 0.5
2018-Jun-18 11:01S 33°00' E 151°58'0 0.1
2018-Jun-18 10:30S 33°00' E 151°58'0 0.2
2018-Jun-18 10:01S 33°00' E 151°58'0 0.3
2018-Jun-18 09:31S 33°01' E 151°58'0 0.2
2018-Jun-18 09:00S 33°01' E 151°59'0 0.5
2018-Jun-18 08:31S 33°01' E 151°59'1 1.5
2018-Jun-18 08:01S 33°01' E 151°58'2 4.1
2018-Jun-18 07:30S 33°01' E 151°56'713.2
2018-Jun-18 07:01S 33°06' E 151°50'3014.2
2018-Jun-18 04:55S 33°35' E 151°41'613.9
2018-Jun-18 04:30S 33°40' E 151°39'713.6
2018-Jun-18 04:00S 33°47' E 151°37'713.9
2018-Jun-18 03:31S 33°53' E 151°34'714.0
2018-Jun-18 03:01S 34°00' E 151°32'713.7
2018-Jun-18 02:31S 34°07' E 151°30'37511.2
2018-Jun-16 17:00S 39°06' E 146°48'14513.2 260 / 261003.2 5.4 13.0 9.114.1
2018-Jun-16 06:00S 38°54' E 143°42'   210 / 271010.0 5.4 11.0 6.012.0
Track history (hours):
 
Tides and Currents Weather Stations Pressure Air Temp Water Temp Dewpoint Dewpoint Depression Visibility Wind Speed Wind Dir Waves Ship Positions

Penguin Arrow

Last reported at 2018-Jun-24 04:51 UTC. Time now 2018-Jun-25 06:06 UTC.
Position S 34°07' E 151°20'.

Length 200 m; draft 8.9 m.

Type: Cargo ship. MMSI: 309927000.

Date/timePositionNaut miles runAvg speedWind from/ knotsBaromVisibWave heightAir tempDewpointWater temp
2018-Jun-24 04:51S 34°07' E 151°20'411.8
2018-Jun-24 04:31S 34°04' E 151°24'611.8
2018-Jun-24 04:00S 33°60' E 151°29'611.4
2018-Jun-24 03:30S 33°55' E 151°32'611.7
2018-Jun-24 03:00S 33°50' E 151°35'612.4
2018-Jun-24 02:30S 33°44' E 151°37'612.6
2018-Jun-24 02:00S 33°38' E 151°39'2712.9
2018-Jun-23 23:57S 33°12' E 151°47'613.0
2018-Jun-23 23:28S 33°06' E 151°48'612.8
2018-Jun-23 23:01S 33°00' E 151°50'611.0
2018-Jun-23 22:30S 32°55' E 151°49'2 4.3
2018-Jun-23 22:01S 32°55' E 151°46'0 0.1
2018-Jun-23 21:28S 32°55' E 151°46'0 0.0
2018-Jun-23 20:58S 32°55' E 151°46'0 0.0
2018-Jun-23 20:28S 32°55' E 151°46'0 0.0
2018-Jun-23 19:58S 32°55' E 151°46'0 0.0
2018-Jun-23 19:22S 32°55' E 151°46'0 0.0
2018-Jun-23 18:58S 32°55' E 151°46'0 0.0
2018-Jun-23 18:25S 32°55' E 151°46'0 0.0
2018-Jun-23 17:58S 32°55' E 151°46'0 0.0
2018-Jun-23 17:25S 32°55' E 151°46'0 0.0
2018-Jun-23 16:58S 32°55' E 151°46'0 0.0
2018-Jun-23 16:28S 32°55' E 151°46'0 0.0
2018-Jun-23 15:58S 32°55' E 151°46'0 0.0
2018-Jun-23 15:28S 32°55' E 151°46'0 0.0
2018-Jun-23 14:58S 32°55' E 151°46'0 0.0
2018-Jun-23 14:28S 32°55' E 151°46'0 0.0
2018-Jun-23 13:58S 32°55' E 151°46'0 0.0
2018-Jun-23 13:28S 32°55' E 151°46'0 0.0
2018-Jun-23 12:58S 32°55' E 151°46'0 0.0
2018-Jun-23 12:28S 32°55' E 151°46'0 0.0
2018-Jun-23 11:58S 32°55' E 151°46'0 0.0
2018-Jun-23 11:28S 32°55' E 151°46'0 0.0
2018-Jun-23 10:58S 32°55' E 151°46'0 0.0
2018-Jun-23 10:28S 32°55' E 151°46'0 0.0
2018-Jun-23 09:58S 32°55' E 151°46'0 0.0
2018-Jun-23 09:28S 32°55' E 151°46'0 0.0
2018-Jun-23 08:58S 32°55' E 151°46'0 0.0
2018-Jun-23 08:28S 32°55' E 151°46'0 0.0
2018-Jun-23 07:58S 32°55' E 151°46'0 0.0
2018-Jun-23 07:28S 32°55' E 151°46'0 0.0
2018-Jun-23 06:58S 32°55' E 151°46'0 0.0
2018-Jun-23 06:28S 32°55' E 151°46'0 0.0
2018-Jun-23 05:58S 32°55' E 151°46'0 0.0
2018-Jun-23 05:22S 32°55' E 151°46'0 0.0
2018-Jun-23 04:58S 32°55' E 151°46'0 0.0
2018-Jun-23 04:28S 32°55' E 151°46'0 0.0
2018-Jun-23 03:58S 32°55' E 151°46'0 0.0
2018-Jun-23 03:28S 32°55' E 151°46'0 0.0
2018-Jun-23 02:58S 32°55' E 151°46'0 0.0
2018-Jun-23 02:28S 32°55' E 151°46'0 0.0
2018-Jun-23 02:00S 32°55' E 151°46'0 0.3
2018-Jun-23 01:30S 32°55' E 151°46'1 1.3
2018-Jun-23 01:00S 32°55' E 151°47'3 6.8
2018-Jun-23 00:30S 32°56' E 151°51'3 5.6
2018-Jun-23 00:00S 32°58' E 151°52'510.8
2018-Jun-22 23:31S 33°03' E 151°55'2 4.2
2018-Jun-22 23:00S 33°05' E 151°57'0 0.9
2018-Jun-22 22:30S 33°04' E 151°57'1 1.5
2018-Jun-22 22:00S 33°05' E 151°57'2 3.7
2018-Jun-22 21:30S 33°07' E 151°57'0 0.7
2018-Jun-22 21:00S 33°07' E 151°57'0 1.0
2018-Jun-22 20:30S 33°06' E 151°57'1 1.3
2018-Jun-22 20:01S 33°06' E 151°57'1 1.5
2018-Jun-22 19:31S 33°05' E 151°57'1 1.2
2018-Jun-22 19:01S 33°04' E 151°57'0 0.9
2018-Jun-22 18:30S 33°05' E 151°58'1 1.3
2018-Jun-22 18:00S 33°05' E 151°58'0 0.8
2018-Jun-22 17:30S 33°05' E 151°58'0 0.8
2018-Jun-22 17:00S 33°05' E 151°59'0 0.4
2018-Jun-22 16:30S 33°05' E 151°59'0 0.6
2018-Jun-22 16:01S 33°05' E 151°59'1 1.1
2018-Jun-22 15:30S 33°04' E 151°59'0 0.7
2018-Jun-22 15:01S 33°04' E 151°59'1 2.6
2018-Jun-22 14:30S 33°03' E 151°58'4 8.9
2018-Jun-22 14:00S 32°60' E 151°54'2 4.5
2018-Jun-22 13:31S 33°02' E 151°56'4 7.7
2018-Jun-22 13:00S 33°04' E 151°60'1 1.1
2018-Jun-22 12:31S 33°03' E 151°60'1 1.2
2018-Jun-22 12:00S 33°03' E 151°59'2 3.3
2018-Jun-22 11:30S 33°02' E 151°58'4 8.2
2018-Jun-22 11:00S 33°01' E 151°53'5 9.3
2018-Jun-22 10:30S 33°06' E 151°54'0 0.9
2018-Jun-22 10:00S 33°05' E 151°54'0 1.0
2018-Jun-22 09:30S 33°05' E 151°55'1 1.2
2018-Jun-22 09:00S 33°05' E 151°56'1 1.1
2018-Jun-22 08:30S 33°05' E 151°56'0 0.9
2018-Jun-22 08:00S 33°04' E 151°56'1 1.2
2018-Jun-22 07:30S 33°04' E 151°57'0 0.7
2018-Jun-22 07:00S 33°04' E 151°57'1 1.4
2018-Jun-22 06:30S 33°04' E 151°56'1 1.6
2018-Jun-22 06:00S 33°03' E 151°57'4271.6
2018-Jun-22 06:00S 33°00' E 151°54'4 9.2 290 / 51026.310.8 19.013.818.5
2018-Jun-22 05:30S 33°03' E 151°58'1 1.7
2018-Jun-22 05:00S 33°02' E 151°58'1 1.2
2018-Jun-22 04:30S 33°02' E 151°58'1 1.6
2018-Jun-22 04:00S 33°02' E 151°58'1 1.9
2018-Jun-22 03:30S 33°02' E 151°59'0 0.8
2018-Jun-22 03:00S 33°02' E 151°60'1 2.3
2018-Jun-22 02:30S 33°00' E 151°60'2 4.7
2018-Jun-22 02:00S 33°01' E 151°57'4 7.2
2018-Jun-22 01:30S 33°02' E 151°53'4 8.3
2018-Jun-22 01:00S 33°06' E 151°53'1 1.7
2018-Jun-22 00:30S 33°06' E 151°54'1 1.8
2018-Jun-22 00:00S 33°05' E 151°54'1 2.0
2018-Jun-21 23:30S 33°05' E 151°55'1 1.9
2018-Jun-21 23:00S 33°04' E 151°56'1 1.9
2018-Jun-21 22:30S 33°03' E 151°57'1 1.7
2018-Jun-21 22:00S 33°03' E 151°58'1 1.9
2018-Jun-21 21:30S 33°02' E 151°59'4 8.5
2018-Jun-21 21:00S 33°01' E 151°54'4 8.5
2018-Jun-21 20:30S 33°05' E 151°56'1 1.7
2018-Jun-21 20:00S 33°04' E 151°57'1 1.9
2018-Jun-21 19:30S 33°05' E 151°58'0 0.2
2018-Jun-21 19:00S 33°05' E 151°58'1 1.9
2018-Jun-21 18:30S 33°04' E 151°58'1 2.4
2018-Jun-21 18:00S 33°03' E 151°58'3 6.2
2018-Jun-21 17:30S 33°00' E 151°56'510.7
2018-Jun-21 17:00S 32°56' E 151°51'1 2.7
2018-Jun-21 16:30S 32°55' E 151°51'4 8.5
2018-Jun-21 16:00S 32°59' E 151°52'4 7.0
2018-Jun-21 15:30S 33°01' E 151°56'3 5.4
2018-Jun-21 15:00S 33°03' E 151°58'1 2.2
2018-Jun-21 14:30S 33°02' E 151°59'1 1.2
2018-Jun-21 14:00S 33°02' E 151°59'0 0.9
2018-Jun-21 13:30S 33°01' E 151°60'1 1.2
2018-Jun-21 13:00S 33°01' E 152°00'1 1.2
2018-Jun-21 12:30S 33°00' E 152°00'1 1.1
2018-Jun-21 12:00S 32°60' E 152°01'1 1.1
2018-Jun-21 11:30S 32°60' E 152°01'0 0.7
2018-Jun-21 11:00S 32°59' E 152°02'1 1.0
2018-Jun-21 10:30S 32°59' E 152°02'0 0.6
2018-Jun-21 10:00S 32°59' E 152°02'1 1.6
2018-Jun-21 09:30S 32°59' E 152°03'0 0.6
2018-Jun-21 09:00S 32°59' E 152°04'1 2.3
2018-Jun-21 08:30S 32°58' E 152°03'0 0.2
2018-Jun-21 08:00S 32°58' E 152°03'0 0.8
2018-Jun-21 07:30S 32°58' E 152°04'0 0.8
2018-Jun-21 07:00S 32°59' E 152°04'2 4.0
2018-Jun-21 06:30S 33°01' E 152°04'1 1.4
2018-Jun-21 06:00S 33°00' E 152°04'1 1.7
2018-Jun-21 05:30S 33°00' E 152°03'2 3.1
2018-Jun-21 05:00S 33°00' E 152°02'0 0.8
2018-Jun-21 04:30S 33°00' E 152°01'1 1.5
2018-Jun-21 04:00S 32°60' E 152°02'1 1.6
2018-Jun-21 03:30S 32°60' E 152°03'0 0.6
2018-Jun-21 03:00S 32°60' E 152°03'0 0.5
2018-Jun-21 02:30S 32°60' E 152°03'0 0.5
2018-Jun-21 02:00S 32°60' E 152°04'1 2.6
2018-Jun-21 01:30S 32°59' E 152°02'2 4.7
2018-Jun-21 01:00S 32°59' E 151°59'0 0.6
2018-Jun-21 00:30S 32°59' E 151°60'0 0.7
2018-Jun-21 00:00S 32°59' E 151°60'1 1.1
2018-Jun-20 23:30S 32°59' E 152°01'0 0.7
2018-Jun-20 23:00S 32°60' E 152°01'0 0.9
2018-Jun-20 22:30S 32°60' E 152°01'0 0.9
2018-Jun-20 22:00S 33°00' E 152°02'0 0.9
2018-Jun-20 21:30S 33°00' E 152°02'0 0.8
2018-Jun-20 21:00S 33°00' E 152°03'2 3.2
2018-Jun-20 20:30S 32°59' E 152°02'1 1.3
2018-Jun-20 20:00S 32°58' E 152°02'1 1.2
2018-Jun-20 19:30S 32°59' E 152°02'1 1.0
2018-Jun-20 19:00S 32°59' E 152°03'1 1.1
2018-Jun-20 18:30S 32°59' E 152°03'0 0.7
2018-Jun-20 18:00S 32°59' E 152°03'0 0.8
2018-Jun-20 17:30S 32°59' E 152°04'1 1.3
2018-Jun-20 17:00S 32°59' E 152°05'1 2.0
2018-Jun-20 16:30S 32°60' E 152°06'1 1.4
2018-Jun-20 16:00S 32°59' E 152°07'1 1.9
2018-Jun-20 15:30S 32°59' E 152°08'1 2.3
2018-Jun-20 15:00S 32°59' E 152°06'0 0.8
2018-Jun-20 14:30S 32°58' E 152°06'2 3.3
2018-Jun-20 14:00S 32°58' E 152°04'1 1.0
2018-Jun-20 13:30S 32°58' E 152°03'0 1.0
2018-Jun-20 13:00S 32°58' E 152°03'1 1.0
2018-Jun-20 12:30S 32°59' E 152°04'0 0.8
2018-Jun-20 12:00S 32°59' E 152°03'1 2.2
2018-Jun-20 11:30S 32°58' E 152°02'0 0.8
2018-Jun-20 11:00S 32°58' E 152°02'1 1.2
2018-Jun-20 10:30S 32°59' E 152°02'1 1.1
2018-Jun-20 10:00S 32°59' E 152°02'1 1.3
2018-Jun-20 09:30S 32°59' E 152°02'2 3.3
2018-Jun-20 09:00S 32°58' E 152°02'2 3.4
2018-Jun-20 08:30S 32°56' E 152°03'1 1.3
2018-Jun-20 08:00S 32°57' E 152°02'1 1.2
2018-Jun-20 07:30S 32°57' E 152°02'1 1.4
2018-Jun-20 07:00S 32°57' E 152°01'0 0.5
2018-Jun-20 06:30S 32°58' E 152°01'1 2.6
2018-Jun-20 06:00S 32°59' E 152°01'1 2.2
2018-Jun-20 05:30S 32°58' E 152°01'1 1.4
2018-Jun-20 05:00S 32°57' E 152°01'1 1.4
2018-Jun-20 04:30S 32°58' E 152°02'1 1.1
2018-Jun-20 04:00S 32°57' E 152°02'0 0.7
2018-Jun-20 03:30S 32°57' E 152°02'0 1.0
2018-Jun-20 03:00S 32°57' E 152°02'2 4.2
2018-Jun-20 02:30S 32°59' E 152°02'2 4.6
2018-Jun-20 02:00S 33°02' E 152°01'1 1.0
2018-Jun-20 01:30S 33°02' E 152°00'1 1.6
2018-Jun-20 01:00S 33°01' E 151°60'1 1.5
2018-Jun-20 00:30S 33°01' E 151°59'1 1.4
2018-Jun-20 00:00S 33°00' E 151°59'1 1.0
2018-Jun-19 23:30S 32°60' E 151°59'1 1.5
2018-Jun-19 23:00S 32°60' E 151°59'0 0.7
2018-Jun-19 22:30S 33°00' E 151°60'0 0.7
2018-Jun-19 22:00S 32°60' E 151°60'0 0.6
2018-Jun-19 21:30S 32°60' E 152°00'0 0.8
2018-Jun-19 21:00S 32°59' E 152°00'0 0.7
2018-Jun-19 20:30S 32°59' E 152°01'1 1.7
2018-Jun-19 20:00S 32°58' E 152°01'0 0.3
2018-Jun-19 19:30S 32°58' E 152°00'0 0.7
2018-Jun-19 19:00S 32°58' E 152°01'1 3.0
2018-Jun-19 18:30S 32°58' E 152°03'1 1.4
2018-Jun-19 18:00S 32°57' E 152°03'4273.0
2018-Jun-19 18:00S 32°54' E 152°00'4 8.4 130 / 251024.2 5.4 13.013.013.5
2018-Jun-19 17:30S 32°57' E 152°03'1 1.2
2018-Jun-19 17:00S 32°57' E 152°04'0 0.3
2018-Jun-19 16:30S 32°57' E 152°04'0 0.3
2018-Jun-19 16:00S 32°57' E 152°04'0 0.9
2018-Jun-19 15:30S 32°57' E 152°03'0 0.8
2018-Jun-19 15:00S 32°57' E 152°03'0 0.7
2018-Jun-19 14:30S 32°57' E 152°03'0 0.9
2018-Jun-19 14:00S 32°57' E 152°02'0 1.0
2018-Jun-19 13:30S 32°57' E 152°02'2 4.1
2018-Jun-19 13:00S 32°59' E 152°00'1 1.2
2018-Jun-19 12:30S 32°60' E 151°60'0 0.7
2018-Jun-19 12:00S 32°60' E 151°59'1 1.2
2018-Jun-19 11:31S 32°60' E 151°59'1 1.2
2018-Jun-19 11:01S 32°60' E 151°58'0 0.5
2018-Jun-19 10:30S 33°00' E 151°58'0 0.4
2018-Jun-19 10:01S 32°60' E 151°58'0 0.3
2018-Jun-19 09:31S 32°60' E 151°58'0 0.5
2018-Jun-19 09:00S 32°60' E 151°59'0 0.8
2018-Jun-19 08:31S 32°60' E 151°59'1 1.2
2018-Jun-19 08:01S 32°59' E 151°60'0 0.8
2018-Jun-19 07:30S 32°60' E 151°60'1 1.0
2018-Jun-19 07:01S 32°60' E 151°59'1 1.8
2018-Jun-19 06:30S 32°59' E 152°00'3 5.4
2018-Jun-19 06:01S 32°57' E 152°02'2 4.4
2018-Jun-19 05:30S 32°56' E 152°05'2 4.8
2018-Jun-19 05:00S 32°57' E 152°07'0 0.7
2018-Jun-19 04:31S 32°58' E 152°07'1 1.5
2018-Jun-19 04:01S 32°58' E 152°06'1 1.3
2018-Jun-19 03:30S 32°58' E 152°05'1 1.6
2018-Jun-19 03:00S 32°58' E 152°04'1 1.2
2018-Jun-19 02:30S 32°58' E 152°05'0 0.4
2018-Jun-19 02:01S 32°58' E 152°05'0 0.7
2018-Jun-19 01:30S 32°58' E 152°05'0 0.6
2018-Jun-19 01:00S 32°58' E 152°04'0 0.5
2018-Jun-19 00:30S 32°58' E 152°05'0 0.5
2018-Jun-19 00:00S 32°57' E 152°05'2 4.0
2018-Jun-18 23:31S 32°59' E 152°03'3 6.6
2018-Jun-18 23:01S 33°02' E 152°01'3 6.4
2018-Jun-18 22:31S 33°05' E 152°00'2 4.8
2018-Jun-18 22:01S 33°07' E 151°60'1 1.8
2018-Jun-18 21:30S 33°07' E 152°00'1 2.0
2018-Jun-18 21:00S 33°06' E 152°01'1 1.9
2018-Jun-18 20:31S 33°06' E 152°03'1 1.8
2018-Jun-18 20:00S 33°06' E 152°03'0 0.9
2018-Jun-18 19:30S 33°05' E 152°04'1 1.1
2018-Jun-18 19:01S 33°05' E 152°03'1 1.1
2018-Jun-18 18:30S 33°05' E 152°03'1 1.2
2018-Jun-18 18:00S 33°04' E 152°02'1 1.1
2018-Jun-18 17:30S 33°04' E 152°02'0 0.8
2018-Jun-18 17:00S 33°03' E 152°02'0 0.9
2018-Jun-18 16:30S 33°03' E 152°01'0 0.6
2018-Jun-18 16:00S 33°03' E 152°01'0 0.6
2018-Jun-18 15:31S 33°03' E 152°01'0 1.0
2018-Jun-18 15:01S 33°03' E 152°00'0 0.8
2018-Jun-18 14:31S 33°02' E 151°60'0 0.5
2018-Jun-18 14:00S 33°02' E 151°60'0 0.6
2018-Jun-18 13:30S 33°02' E 151°59'1 1.1
2018-Jun-18 13:01S 33°02' E 151°59'0 1.0
2018-Jun-18 12:31S 33°01' E 151°59'0 0.7
2018-Jun-18 12:01S 33°01' E 151°59'0 0.7
2018-Jun-18 11:31S 33°01' E 151°58'0 0.5
2018-Jun-18 11:01S 33°00' E 151°58'0 0.1
2018-Jun-18 10:30S 33°00' E 151°58'0 0.2
2018-Jun-18 10:01S 33°00' E 151°58'0 0.3
2018-Jun-18 09:31S 33°01' E 151°58'0 0.2
2018-Jun-18 09:00S 33°01' E 151°59'0 0.5
2018-Jun-18 08:31S 33°01' E 151°59'1 1.5
2018-Jun-18 08:01S 33°01' E 151°58'2 4.1
2018-Jun-18 07:30S 33°01' E 151°56'713.2
2018-Jun-18 07:01S 33°06' E 151°50'3014.2
2018-Jun-18 04:55S 33°35' E 151°41'613.9
2018-Jun-18 04:30S 33°40' E 151°39'713.6
2018-Jun-18 04:00S 33°47' E 151°37'713.9
2018-Jun-18 03:31S 33°53' E 151°34'714.0
2018-Jun-18 03:01S 34°00' E 151°32'713.7
2018-Jun-18 02:31S 34°07' E 151°30'37511.2
2018-Jun-16 17:00S 39°06' E 146°48'14513.2 260 / 261003.2 5.4 13.0 9.114.1
2018-Jun-16 06:00S 38°54' E 143°42'   210 / 271010.0 5.4 11.0 6.012.0

Dump ship's entire track history